createdAt,value
2023-03-21T00:02:25.074Z,88.71
2023-03-21T00:04:55.099Z,88.05
2023-03-21T00:07:25.029Z,86.96
2023-03-21T00:09:59.094Z,87.91
2023-03-21T00:12:32.676Z,89.21
2023-03-21T00:15:04.744Z,89.59
2023-03-21T00:17:33.611Z,89.39
2023-03-21T00:20:01.983Z,89.11
2023-03-21T00:22:30.185Z,88.75
2023-03-21T00:24:58.114Z,89.23
2023-03-21T00:27:45.200Z,88.86
2023-03-21T00:30:16.273Z,88.81
2023-03-21T00:32:55.539Z,88.90
2023-03-21T00:38:12.688Z,89.29
2023-03-21T00:40:48.621Z,88.89
2023-03-21T00:43:19.299Z,89.43
2023-03-21T00:45:48.809Z,89.29
2023-03-21T00:48:16.694Z,89.02
2023-03-21T00:50:46.849Z,89.67
2023-03-21T00:53:15.490Z,89.19
2023-03-21T00:55:46.068Z,88.97
2023-03-21T00:58:14.517Z,89.05
2023-03-21T01:00:42.692Z,89.07
2023-03-21T01:03:24.550Z,89.91
2023-03-21T01:06:07.349Z,89.52
2023-03-21T01:08:50.407Z,90.38
2023-03-21T01:11:22.737Z,90.09
2023-03-21T01:13:56.030Z,90.21
2023-03-21T01:16:27.674Z,90.30
2023-03-21T01:18:57.326Z,90.26
2023-03-21T01:21:25.394Z,90.19
2023-03-21T01:23:53.810Z,90.51
2023-03-21T01:26:22.155Z,89.68
2023-03-21T01:28:50.126Z,88.89
2023-03-21T01:31:19.106Z,89.28
2023-03-21T01:33:47.469Z,89.54
2023-03-21T01:36:22.382Z,89.07
2023-03-21T01:38:51.665Z,89.40
2023-03-21T01:41:33.539Z,89.40
2023-03-21T01:44:06.062Z,90.38
2023-03-21T01:46:49.693Z,90.32
2023-03-21T01:49:26.163Z,89.63
2023-03-21T01:52:06.551Z,89.53
2023-03-21T01:54:42.273Z,89.84
2023-03-21T01:57:15.032Z,90.76
2023-03-21T01:59:45.342Z,90.95
2023-03-21T02:02:18.194Z,91.38
2023-03-21T02:04:50.810Z,90.64
2023-03-21T02:07:25.990Z,90.26
2023-03-21T02:09:55.519Z,91.15
2023-03-21T02:12:24.102Z,90.88
2023-03-21T02:14:54.402Z,90.46
2023-03-21T02:17:30.156Z,90.46
2023-03-21T02:20:28.612Z,90.52
2023-03-21T02:23:38.100Z,90.49
2023-03-21T02:26:52.484Z,90.92
2023-03-21T02:30:01.389Z,91.89
2023-03-21T02:32:43.307Z,91.00
2023-03-21T02:35:26.096Z,90.96
2023-03-21T02:38:00.910Z,90.76
2023-03-21T02:40:34.935Z,91.30
2023-03-21T02:43:17.000Z,91.14
2023-03-21T02:45:56.770Z,92.11
2023-03-21T02:48:41.014Z,92.02
2023-03-21T02:51:17.392Z,92.67
2023-03-21T02:54:16.196Z,91.98
2023-03-21T02:56:43.078Z,92.09
2023-03-21T02:59:12.151Z,92.33
2023-03-21T03:01:40.184Z,92.30
2023-03-21T03:04:19.823Z,92.37
2023-03-21T03:07:06.971Z,91.53
2023-03-21T03:09:44.689Z,91.42
2023-03-21T03:12:22.621Z,92.08
2023-03-21T03:15:03.863Z,92.49
2023-03-21T03:17:50.272Z,92.28
2023-03-21T03:20:25.728Z,92.48
2023-03-21T03:23:00.890Z,92.29
2023-03-21T03:25:42.846Z,92.08
2023-03-21T03:28:14.510Z,93.20
2023-03-21T03:30:57.155Z,92.41
2023-03-21T03:33:33.356Z,92.66
2023-03-21T03:36:06.388Z,93.11
2023-03-21T03:38:38.161Z,92.54
2023-03-21T03:41:14.777Z,92.01
2023-03-21T03:43:48.593Z,91.39
2023-03-21T03:46:21.064Z,91.78
2023-03-21T03:48:53.372Z,91.76
2023-03-21T03:51:27.346Z,91.89
2023-03-21T03:53:59.959Z,92.74
2023-03-21T03:56:32.125Z,91.74
2023-03-21T03:59:00.742Z,91.01
2023-03-21T04:01:30.982Z,91.99
2023-03-21T04:04:12.146Z,93.52
2023-03-21T04:06:41.487Z,94.56
2023-03-21T04:09:19.004Z,94.41
2023-03-21T04:11:49.908Z,93.68
2023-03-21T04:14:18.205Z,93.08
2023-03-21T04:16:46.534Z,92.13
2023-03-21T04:19:15.908Z,92.61
2023-03-21T04:21:44.600Z,92.62
2023-03-21T04:24:13.906Z,92.19
2023-03-21T04:26:42.326Z,91.99
2023-03-21T04:29:11.725Z,92.47
2023-03-21T04:31:41.722Z,91.87
2023-03-21T04:34:12.764Z,91.14
2023-03-21T04:36:44.167Z,91.48
2023-03-21T04:39:13.318Z,91.58
2023-03-21T04:41:41.939Z,91.71
2023-03-21T04:44:12.825Z,91.65
2023-03-21T04:46:41.422Z,92.07
2023-03-21T04:49:09.771Z,91.36
2023-03-21T04:51:41.056Z,92.13
2023-03-21T04:54:11.840Z,91.53
2023-03-21T04:56:41.091Z,91.14
2023-03-21T04:59:12.738Z,91.30
2023-03-21T05:01:43.829Z,91.26
2023-03-21T05:04:13.210Z,92.13
2023-03-21T05:06:42.665Z,92.03
2023-03-21T05:09:11.158Z,91.65
2023-03-21T05:11:41.240Z,92.47
2023-03-21T05:14:12.358Z,92.83
2023-03-21T05:16:45.081Z,92.40
2023-03-21T05:19:14.055Z,93.44
2023-03-21T05:21:42.497Z,93.81
2023-03-21T05:24:12.276Z,93.72
2023-03-21T05:26:40.734Z,93.33
2023-03-21T05:29:09.405Z,93.85
2023-03-21T05:31:38.854Z,93.30
2023-03-21T05:34:06.792Z,93.81
2023-03-21T05:36:36.141Z,93.04
2023-03-21T05:39:04.760Z,92.40
2023-03-21T05:41:33.391Z,92.55
2023-03-21T05:44:01.763Z,92.75
2023-03-21T05:46:29.679Z,93.02
2023-03-21T05:48:59.193Z,92.34
2023-03-21T05:51:27.457Z,92.73
2023-03-21T05:53:56.255Z,93.06
2023-03-21T05:56:24.234Z,92.33
2023-03-21T05:58:52.073Z,92.42
2023-03-21T06:01:19.954Z,92.71
2023-03-21T06:03:48.044Z,93.53
2023-03-21T06:06:17.321Z,93.61
2023-03-21T06:08:45.558Z,92.74
2023-03-21T06:11:23.911Z,92.27
2023-03-21T06:13:51.983Z,92.57
2023-03-21T06:16:19.985Z,92.26
2023-03-21T06:18:48.951Z,92.58
2023-03-21T06:21:18.153Z,93.07
2023-03-21T06:23:46.905Z,92.93
2023-03-21T06:26:15.357Z,92.99
2023-03-21T06:28:43.232Z,92.34
2023-03-21T06:31:11.340Z,92.42
2023-03-21T06:33:39.258Z,92.55
2023-03-21T06:44:25.795Z,96.48
2023-03-21T06:46:54.178Z,97.81
2023-03-21T06:49:22.374Z,97.75
2023-03-21T06:51:50.377Z,97.66
2023-03-21T06:54:19.342Z,96.89
2023-03-21T06:56:47.467Z,95.99
2023-03-21T06:59:15.688Z,94.81
2023-03-21T07:01:45.144Z,93.55
2023-03-21T07:04:13.527Z,92.58
2023-03-21T07:06:42.723Z,92.28
2023-03-21T07:09:10.851Z,90.92
2023-03-21T07:11:39.167Z,90.81
2023-03-21T07:14:07.850Z,90.23
2023-03-21T07:16:36.142Z,91.43
2023-03-21T07:19:05.766Z,90.80
2023-03-21T07:21:33.931Z,90.71
2023-03-21T07:24:01.782Z,90.58
2023-03-21T07:26:29.855Z,90.41
2023-03-21T07:29:02.198Z,90.47
2023-03-21T07:31:30.181Z,89.54
2023-03-21T07:33:59.000Z,90.07
2023-03-21T07:36:28.766Z,89.71
2023-03-21T07:38:57.307Z,89.90
2023-03-21T07:41:25.348Z,89.56
2023-03-21T07:43:53.304Z,89.48
2023-03-21T07:46:21.312Z,90.13
2023-03-21T07:48:49.358Z,89.15
2023-03-21T07:51:17.238Z,88.86
2023-03-21T07:53:48.619Z,88.65
2023-03-21T07:56:17.128Z,88.15
2023-03-21T07:58:45.008Z,88.89
2023-03-21T08:01:12.885Z,88.99
2023-03-21T08:03:41.018Z,88.81
2023-03-21T08:06:10.018Z,89.00
2023-03-21T08:08:38.717Z,89.47
2023-03-21T08:11:08.997Z,88.82
2023-03-21T08:13:36.846Z,90.86
2023-03-21T08:16:05.042Z,91.42
2023-03-21T08:18:33.086Z,91.36
2023-03-21T08:21:01.217Z,92.22
2023-03-21T08:23:29.735Z,92.48
2023-03-21T08:25:58.655Z,91.19
2023-03-21T08:28:28.497Z,91.28
2023-03-21T08:30:57.089Z,91.18
2023-03-21T08:33:25.171Z,90.12
2023-03-21T08:35:53.104Z,89.94
2023-03-21T08:38:21.543Z,89.27
2023-03-21T08:40:49.468Z,88.54
2023-03-21T08:43:17.385Z,88.05
2023-03-21T08:45:46.658Z,88.37
2023-03-21T08:48:14.647Z,89.27
2023-03-21T08:50:42.599Z,89.29
2023-03-21T08:53:10.605Z,88.86
2023-03-21T08:55:39.111Z,89.11
2023-03-21T08:58:07.826Z,88.55
2023-03-21T09:00:35.849Z,88.77
2023-03-21T09:03:05.373Z,88.24
2023-03-21T09:05:33.725Z,89.37
2023-03-21T09:08:03.415Z,89.25
2023-03-21T09:10:31.725Z,88.76
2023-03-21T09:12:59.614Z,88.23
2023-03-21T09:15:29.551Z,88.31
2023-03-21T09:18:13.280Z,88.19
2023-03-21T09:20:43.873Z,87.77
2023-03-21T09:23:13.355Z,89.20
2023-03-21T09:25:42.312Z,88.26
2023-03-21T09:28:10.662Z,87.61
2023-03-21T09:30:38.842Z,88.54
2023-03-21T09:33:09.821Z,87.59
2023-03-21T09:35:38.035Z,86.47
2023-03-21T09:38:07.853Z,88.14
2023-03-21T09:40:58.396Z,86.58
2023-03-21T09:43:38.304Z,86.36
2023-03-21T09:46:11.414Z,86.27
2023-03-21T09:48:56.643Z,85.23
2023-03-21T09:51:28.836Z,84.53
2023-03-21T09:54:02.581Z,84.06
2023-03-21T09:56:31.556Z,83.61
2023-03-21T09:59:01.706Z,84.50
2023-03-21T10:01:35.503Z,84.53
2023-03-21T10:04:07.331Z,84.26
2023-03-21T10:06:39.317Z,84.70
2023-03-21T10:09:15.248Z,84.44
2023-03-21T10:11:47.014Z,85.00
2023-03-21T10:14:20.237Z,84.43
2023-03-21T10:16:51.489Z,86.14
2023-03-21T10:19:20.733Z,86.19
2023-03-21T10:22:06.159Z,86.61
2023-03-21T10:24:36.161Z,85.95
2023-03-21T10:27:05.547Z,85.91
2023-03-21T10:29:37.260Z,86.99
2023-03-21T10:32:05.556Z,85.98
2023-03-21T10:34:37.749Z,85.42
2023-03-21T10:37:06.769Z,86.42
2023-03-21T10:39:40.359Z,86.52
2023-03-21T10:42:16.098Z,86.79
2023-03-21T10:44:48.580Z,87.65
2023-03-21T10:47:22.508Z,86.80
2023-03-21T10:50:06.773Z,87.35
2023-03-21T10:52:36.758Z,87.68
2023-03-21T10:55:19.749Z,87.19
2023-03-21T10:57:48.622Z,87.23
2023-03-21T11:00:23.105Z,87.82
2023-03-21T11:02:53.149Z,86.17
2023-03-21T11:05:24.269Z,87.19
2023-03-21T11:08:04.102Z,85.87
2023-03-21T11:10:35.887Z,87.78
2023-03-21T11:13:08.274Z,87.75
2023-03-21T11:15:47.833Z,87.62
2023-03-21T11:18:20.977Z,89.08
2023-03-21T11:20:55.191Z,90.51
2023-03-21T11:23:29.748Z,88.53
2023-03-21T11:26:01.382Z,89.07
2023-03-21T11:28:35.116Z,90.19
2023-03-21T11:31:05.738Z,90.40
2023-03-21T11:33:36.676Z,90.58
2023-03-21T11:36:07.615Z,90.49
2023-03-21T11:38:39.288Z,88.89
2023-03-21T11:41:09.091Z,89.44
2023-03-21T11:43:38.199Z,88.82
2023-03-21T11:46:11.469Z,88.08
2023-03-21T11:48:42.227Z,88.42
2023-03-21T11:51:19.931Z,87.17
2023-03-21T11:53:52.715Z,86.91
2023-03-21T11:56:27.482Z,85.89
2023-03-21T11:59:18.965Z,85.02
2023-03-21T12:02:07.094Z,85.84
2023-03-21T12:04:41.479Z,86.58
2023-03-21T12:07:36.269Z,85.66
2023-03-21T12:10:25.063Z,86.60
2023-03-21T12:13:01.776Z,86.60
2023-03-21T12:15:37.228Z,85.53
2023-03-21T12:18:12.705Z,86.75
2023-03-21T12:20:45.684Z,85.01
2023-03-21T12:23:39.450Z,84.77
2023-03-21T12:26:18.077Z,84.23
2023-03-21T12:29:01.306Z,82.81
2023-03-21T12:31:41.105Z,83.34
2023-03-21T12:34:22.698Z,81.86
2023-03-21T12:37:07.138Z,84.02
2023-03-21T12:39:37.242Z,82.82
2023-03-21T12:42:21.849Z,81.67
2023-03-21T12:44:56.081Z,82.89
2023-03-21T12:47:27.480Z,82.91
2023-03-21T12:50:01.563Z,82.54
2023-03-21T12:52:33.352Z,82.81
2023-03-21T12:55:04.394Z,82.94
2023-03-21T12:57:35.671Z,84.02
2023-03-21T13:00:13.637Z,84.85
2023-03-21T13:02:45.673Z,85.05
2023-03-21T13:05:21.823Z,85.41
2023-03-21T13:07:53.263Z,85.82
2023-03-21T13:10:23.298Z,85.00
2023-03-21T13:13:07.777Z,84.84
2023-03-21T13:15:58.988Z,84.92
2023-03-21T13:18:53.487Z,84.67
2023-03-21T13:21:32.958Z,85.24
2023-03-21T13:24:03.347Z,86.20
2023-03-21T13:26:35.000Z,86.03
2023-03-21T13:29:02.992Z,84.77
2023-03-21T13:31:48.845Z,85.94
2023-03-21T13:34:22.543Z,86.20
2023-03-21T13:36:52.011Z,86.55
2023-03-21T13:39:21.939Z,86.04
2023-03-21T13:41:50.460Z,86.23
2023-03-21T13:44:25.076Z,85.73
2023-03-21T13:47:01.036Z,85.20
2023-03-21T13:49:35.401Z,85.79
2023-03-21T13:52:22.597Z,86.78
2023-03-21T13:54:54.570Z,85.98
2023-03-21T13:57:38.357Z,85.82
2023-03-21T14:00:30.118Z,85.46
2023-03-21T14:03:03.700Z,85.51
2023-03-21T14:05:31.946Z,85.83
2023-03-21T14:08:15.381Z,85.63
2023-03-21T14:10:49.088Z,86.36
2023-03-21T14:13:20.527Z,87.44
2023-03-21T14:15:55.962Z,86.36
2023-03-21T14:18:35.179Z,86.88
2023-03-21T14:21:23.538Z,86.83
2023-03-21T14:23:58.749Z,87.09
2023-03-21T14:26:27.431Z,88.70
2023-03-21T14:28:56.077Z,87.80
2023-03-21T14:31:24.550Z,87.10
2023-03-21T14:33:57.305Z,87.00
2023-03-21T14:36:27.221Z,87.51
2023-03-21T14:38:59.422Z,88.84
2023-03-21T14:41:29.218Z,88.70
2023-03-21T14:44:12.008Z,88.75
2023-03-21T14:46:40.008Z,89.85
2023-03-21T14:49:21.333Z,90.39
2023-03-21T14:51:51.260Z,90.86
2023-03-21T14:54:20.639Z,91.47
2023-03-21T14:56:51.555Z,90.80
2023-03-21T14:59:23.745Z,90.07
2023-03-21T15:01:53.810Z,89.71
2023-03-21T15:04:23.320Z,89.80
2023-03-21T15:06:53.899Z,89.67
2023-03-21T15:09:24.848Z,90.17
2023-03-21T15:11:54.125Z,89.35
2023-03-21T15:14:27.111Z,89.56
2023-03-21T15:16:56.121Z,89.13
2023-03-21T15:19:31.122Z,88.08
2023-03-21T15:22:06.295Z,88.71
2023-03-21T15:24:41.233Z,88.09
2023-03-21T15:27:16.233Z,88.66
2023-03-21T15:29:44.981Z,90.00
2023-03-21T15:32:20.546Z,89.68
2023-03-21T15:34:50.753Z,89.98
2023-03-21T15:37:23.254Z,88.95
2023-03-21T15:39:52.461Z,89.18
2023-03-21T15:42:30.121Z,88.66
2023-03-21T15:45:01.930Z,88.63
2023-03-21T15:47:51.167Z,88.96
2023-03-21T15:50:29.574Z,88.51
2023-03-21T15:52:59.830Z,88.71
2023-03-21T15:55:36.153Z,88.19
2023-03-21T15:58:07.362Z,87.79
2023-03-21T16:00:40.498Z,87.25
2023-03-21T16:03:17.342Z,87.01
2023-03-21T16:06:03.581Z,87.58
2023-03-21T16:08:36.648Z,86.77
2023-03-21T16:11:10.346Z,85.87
2023-03-21T16:13:38.330Z,86.86
2023-03-21T16:16:06.991Z,87.15
2023-03-21T16:18:34.833Z,85.52
2023-03-21T16:21:04.272Z,86.21
2023-03-21T16:23:32.156Z,86.59
2023-03-21T16:26:01.516Z,85.62
2023-03-21T16:28:29.401Z,84.91
2023-03-21T16:30:57.397Z,84.36
2023-03-21T16:33:25.447Z,84.50
2023-03-21T16:35:54.227Z,84.00
2023-03-21T16:38:23.484Z,83.87
2023-03-21T16:40:51.845Z,83.69
2023-03-21T16:43:19.689Z,83.58
2023-03-21T16:45:47.523Z,83.84
2023-03-21T16:48:16.666Z,83.13
2023-03-21T16:50:48.473Z,83.28
2023-03-21T16:53:17.129Z,82.88
2023-03-21T16:55:46.390Z,83.63
2023-03-21T16:58:16.688Z,83.05
2023-03-21T17:00:44.630Z,84.10
2023-03-21T17:03:18.230Z,83.98
2023-03-21T17:05:46.535Z,84.04
2023-03-21T17:08:16.592Z,84.65
2023-03-21T17:10:44.652Z,84.22
2023-03-21T17:13:15.364Z,83.30
2023-03-21T17:15:43.821Z,83.75
2023-03-21T17:18:13.197Z,83.13
2023-03-21T17:20:42.081Z,83.84
2023-03-21T17:23:10.926Z,83.74
2023-03-21T17:25:39.104Z,84.00
2023-03-21T17:28:06.966Z,84.30
2023-03-21T17:30:40.203Z,84.01
2023-03-21T17:33:08.797Z,84.51
2023-03-21T17:35:36.714Z,84.14
2023-03-21T17:38:06.027Z,83.78
2023-03-21T17:40:34.566Z,83.37
2023-03-21T17:43:02.549Z,85.15
2023-03-21T17:45:30.845Z,84.94
2023-03-21T17:48:00.429Z,85.36
2023-03-21T17:50:34.217Z,85.70
2023-03-21T17:53:02.168Z,86.33
2023-03-21T17:55:30.642Z,86.99
2023-03-21T17:57:58.680Z,86.95
2023-03-21T18:00:29.530Z,87.11
2023-03-21T18:02:59.401Z,87.03
2023-03-21T18:05:28.144Z,87.23
2023-03-21T18:08:12.694Z,87.89
2023-03-21T18:10:42.680Z,87.55
2023-03-21T18:13:11.443Z,88.09
2023-03-21T18:15:44.234Z,87.97
2023-03-21T18:18:14.557Z,88.31
2023-03-21T18:20:51.795Z,88.61
2023-03-21T18:23:20.918Z,89.05
2023-03-21T18:25:49.026Z,89.47
2023-03-21T18:28:20.350Z,89.23
2023-03-21T18:33:41.025Z,88.53
2023-03-21T18:36:09.959Z,89.41
2023-03-21T18:38:37.971Z,89.11
2023-03-21T18:41:07.632Z,89.20
2023-03-21T18:46:24.370Z,89.48
2023-03-21T18:48:53.666Z,88.90
2023-03-21T18:51:22.839Z,89.23
2023-03-21T18:53:50.706Z,89.26
2023-03-21T18:57:05.719Z,89.51
2023-03-21T18:59:07.448Z,89.45
2023-03-21T19:01:35.953Z,89.38
2023-03-21T19:04:20.742Z,89.28
2023-03-21T19:06:50.260Z,89.52
2023-03-21T19:09:18.724Z,88.75
2023-03-21T19:11:47.285Z,88.92
2023-03-21T19:14:17.232Z,87.87
2023-03-21T19:17:26.683Z,87.99
2023-03-21T19:19:35.517Z,88.30
2023-03-21T19:22:03.590Z,87.90
2023-03-21T19:24:31.548Z,88.18
2023-03-21T19:26:59.700Z,88.87
2023-03-21T19:29:27.603Z,89.44
2023-03-21T19:31:55.853Z,90.07
2023-03-21T19:34:23.908Z,89.67
2023-03-21T19:36:53.396Z,89.20
2023-03-21T19:39:22.540Z,89.30
2023-03-21T19:41:51.092Z,89.03
2023-03-21T19:44:19.667Z,88.62
2023-03-21T19:46:48.478Z,89.30
2023-03-21T19:49:22.263Z,89.67
2023-03-21T19:51:51.200Z,89.21
2023-03-21T19:54:20.363Z,89.80
2023-03-21T19:56:49.435Z,89.73
2023-03-21T19:59:17.907Z,89.55
2023-03-21T20:01:46.115Z,89.82
2023-03-21T20:04:14.993Z,89.14
2023-03-21T20:06:46.280Z,89.21
2023-03-21T20:09:50.073Z,89.62
2023-03-21T20:12:05.656Z,88.83
2023-03-21T20:14:33.615Z,89.68
2023-03-21T20:17:01.605Z,89.85
2023-03-21T20:19:29.550Z,89.78
2023-03-21T20:22:00.654Z,89.61
2023-03-21T20:24:30.437Z,89.01
2023-03-21T20:26:58.947Z,88.95
2023-03-21T20:30:07.613Z,89.70
2023-03-21T20:32:16.537Z,89.45
2023-03-21T20:34:46.063Z,89.60
2023-03-21T20:37:14.056Z,89.82
2023-03-21T20:39:42.717Z,89.80
2023-03-21T20:42:10.574Z,89.76
2023-03-21T20:44:56.342Z,88.80
2023-03-21T20:47:26.095Z,89.06
2023-03-21T20:49:55.174Z,89.57
2023-03-21T20:55:13.292Z,89.78
2023-03-21T20:57:41.930Z,88.72
2023-03-21T21:00:15.359Z,88.65
2023-03-21T21:02:44.924Z,87.85
2023-03-21T21:05:26.021Z,87.88
2023-03-21T21:07:56.622Z,88.97
2023-03-21T21:10:25.818Z,88.83
2023-03-21T21:12:53.875Z,86.98
2023-03-21T21:15:23.458Z,87.27
2023-03-21T21:18:08.536Z,87.69
2023-03-21T21:20:38.036Z,86.87
2023-03-21T21:23:06.142Z,86.77
2023-03-21T21:25:35.231Z,87.20
2023-03-21T21:28:03.639Z,86.63
2023-03-21T21:30:33.925Z,87.35
2023-03-21T21:33:01.816Z,85.73
2023-03-21T21:35:30.039Z,85.83
2023-03-21T21:37:59.578Z,85.94
2023-03-21T21:40:27.434Z,85.85
2023-03-21T21:42:55.386Z,85.13
2023-03-21T21:45:23.421Z,85.21
2023-03-21T21:47:53.668Z,83.89
2023-03-21T21:50:22.590Z,84.25
2023-03-21T21:52:54.800Z,83.31
2023-03-21T21:55:23.614Z,83.13
2023-03-21T21:57:52.859Z,83.17
2023-03-21T22:00:21.609Z,82.27
2023-03-21T22:02:49.584Z,81.82
2023-03-21T22:05:21.084Z,81.25
2023-03-21T22:07:51.939Z,80.79
2023-03-21T22:10:21.042Z,80.98
2023-03-21T22:12:49.139Z,81.46
2023-03-21T22:15:18.306Z,80.30
2023-03-21T22:17:47.034Z,80.49
2023-03-21T22:20:16.888Z,80.48
2023-03-21T22:22:46.649Z,80.22
2023-03-21T22:25:15.925Z,80.53
2023-03-21T22:27:47.246Z,80.28
2023-03-21T22:30:17.370Z,80.41
2023-03-21T22:32:56.378Z,80.64
2023-03-21T22:35:30.524Z,79.31
2023-03-21T22:37:59.794Z,81.29
2023-03-21T22:40:27.785Z,81.22
2023-03-21T22:42:55.660Z,81.10
2023-03-21T22:45:23.559Z,81.20
2023-03-21T22:47:51.505Z,81.53
2023-03-21T22:50:19.475Z,81.31
2023-03-21T22:52:47.432Z,81.19
2023-03-21T22:55:16.799Z,80.91
2023-03-21T22:57:44.598Z,80.58
2023-03-21T23:00:14.494Z,80.72
2023-03-21T23:02:43.692Z,80.66
2023-03-21T23:05:12.177Z,81.18
2023-03-21T23:07:40.260Z,81.30
2023-03-21T23:10:12.028Z,81.12
2023-03-21T23:12:41.458Z,81.06
2023-03-21T23:15:10.958Z,81.14
2023-03-21T23:17:39.106Z,81.31
2023-03-21T23:20:08.672Z,81.37
2023-03-21T23:22:37.383Z,81.65
2023-03-21T23:25:06.500Z,81.11
2023-03-21T23:27:35.467Z,81.47
2023-03-21T23:30:06.655Z,81.30
2023-03-21T23:32:34.856Z,81.61
2023-03-21T23:35:02.737Z,82.10
2023-03-21T23:37:30.991Z,81.95
2023-03-21T23:39:58.951Z,81.72
2023-03-21T23:42:28.879Z,82.43
2023-03-21T23:44:57.171Z,82.02
2023-03-21T23:47:26.424Z,82.24
2023-03-21T23:49:54.546Z,82.70
2023-03-21T23:52:22.516Z,82.96
2023-03-21T23:54:50.630Z,83.04
2023-03-21T23:57:18.504Z,82.73
2023-03-21T23:59:47.224Z,82.77
